createdAt,value
2018-04-20T00:00:27.216Z,1011.70
2018-04-20T00:01:27.234Z,1011.69
2018-04-20T00:02:27.266Z,1011.67
2018-04-20T00:03:27.288Z,1011.69
2018-04-20T00:04:27.315Z,1011.69
2018-04-20T00:05:27.365Z,1011.68
2018-04-20T00:06:27.395Z,1011.69
2018-04-20T00:07:27.405Z,1011.72
2018-04-20T00:08:27.425Z,1011.71
2018-04-20T00:09:27.448Z,1011.65
2018-04-20T00:10:27.470Z,1011.66
2018-04-20T00:11:27.498Z,1011.64
2018-04-20T00:12:27.521Z,1011.64
2018-04-20T00:13:27.553Z,1011.65
2018-04-20T00:14:27.573Z,1011.56
2018-04-20T00:15:27.611Z,1011.61
2018-04-20T00:16:27.624Z,1011.58
2018-04-20T00:17:27.650Z,1011.59
2018-04-20T00:18:27.679Z,1011.51
2018-04-20T00:19:27.707Z,1011.53
2018-04-20T00:20:27.737Z,1011.56
2018-04-20T00:21:27.765Z,1011.55
2018-04-20T00:22:27.778Z,1011.53
2018-04-20T00:23:27.808Z,1011.53
2018-04-20T00:24:27.835Z,1011.51
2018-04-20T00:25:27.855Z,1011.50
2018-04-20T00:26:27.879Z,1011.53
2018-04-20T00:27:27.907Z,1011.52
2018-04-20T00:28:27.939Z,1011.52
2018-04-20T00:29:27.964Z,1011.50
2018-04-20T00:30:27.989Z,1011.48
2018-04-20T00:31:28.009Z,1011.49
2018-04-20T00:32:28.035Z,1011.47
2018-04-20T00:33:28.071Z,1011.46
2018-04-20T00:34:28.089Z,1011.46
2018-04-20T00:35:28.118Z,1011.47
2018-04-20T00:36:28.145Z,1011.45
2018-04-20T00:37:28.164Z,1011.48
2018-04-20T00:38:28.199Z,1011.45
2018-04-20T00:39:28.220Z,1011.47
2018-04-20T00:40:28.260Z,1011.48
2018-04-20T00:41:28.270Z,1011.46
2018-04-20T00:42:28.298Z,1011.45
2018-04-20T00:43:28.318Z,1011.45
2018-04-20T00:44:28.354Z,1011.48
2018-04-20T00:45:28.372Z,1011.45
2018-04-20T00:46:28.394Z,1011.46
2018-04-20T00:47:28.420Z,1011.44
2018-04-20T00:48:28.454Z,1011.44
2018-04-20T00:49:28.507Z,1011.43
2018-04-20T00:50:28.497Z,1011.47
2018-04-20T00:51:28.530Z,1011.45
2018-04-20T00:52:28.558Z,1011.42
2018-04-20T00:53:28.578Z,1011.48
2018-04-20T00:54:28.601Z,1011.44
2018-04-20T00:55:28.624Z,1011.47
2018-04-20T00:56:28.662Z,1011.45
2018-04-20T00:57:28.681Z,1011.45
2018-04-20T00:58:28.705Z,1011.45
2018-04-20T00:59:28.728Z,1011.43
2018-04-20T01:00:28.752Z,1011.43
2018-04-20T01:01:28.783Z,1011.44
2018-04-20T01:02:28.803Z,1011.45
2018-04-20T01:03:28.832Z,1011.47
2018-04-20T01:04:28.868Z,1011.44
2018-04-20T01:05:28.895Z,1011.40
2018-04-20T01:06:28.922Z,1011.44
2018-04-20T01:07:28.939Z,1011.41
2018-04-20T01:08:28.961Z,1011.41
2018-04-20T01:09:28.988Z,1011.38
2018-04-20T01:10:29.009Z,1011.38
2018-04-20T01:11:29.032Z,1011.36
2018-04-20T01:12:29.069Z,1011.33
2018-04-20T01:13:29.089Z,1011.33
2018-04-20T01:14:29.111Z,1011.35
2018-04-20T01:15:29.132Z,1011.34
2018-04-20T01:16:29.159Z,1011.31
2018-04-20T01:17:29.188Z,1011.30
2018-04-20T01:18:29.211Z,1011.28
2018-04-20T01:19:29.239Z,1011.25
2018-04-20T01:20:29.256Z,1011.23
2018-04-20T01:21:29.294Z,1011.24
2018-04-20T01:22:29.305Z,1011.25
2018-04-20T01:23:29.336Z,1011.24
2018-04-20T01:24:29.362Z,1011.26
2018-04-20T01:25:29.386Z,1011.19
2018-04-20T01:26:29.412Z,1011.25
2018-04-20T01:27:29.454Z,1011.23
2018-04-20T01:28:29.495Z,1011.22
2018-04-20T01:29:29.485Z,1011.23
2018-04-20T01:30:29.518Z,1011.25
2018-04-20T01:31:29.537Z,1011.24
2018-04-20T01:32:29.561Z,1011.24
2018-04-20T01:33:29.592Z,1011.22
2018-04-20T01:34:29.609Z,1011.24
2018-04-20T01:35:29.637Z,1011.23
2018-04-20T01:36:29.675Z,1011.21
2018-04-20T01:37:29.683Z,1011.24
2018-04-20T01:38:29.727Z,1011.20
2018-04-20T01:39:29.745Z,1011.21
2018-04-20T01:40:29.783Z,1011.22
2018-04-20T01:41:29.788Z,1011.22
2018-04-20T01:42:29.811Z,1011.21
2018-04-20T01:43:29.836Z,1011.23
2018-04-20T01:44:29.874Z,1011.22
2018-04-20T01:45:29.889Z,1011.22
2018-04-20T01:46:29.943Z,1011.21
2018-04-20T01:47:29.936Z,1011.19
2018-04-20T01:48:29.961Z,1011.23
2018-04-20T01:49:29.993Z,1011.21
2018-04-20T01:50:30.012Z,1011.18
2018-04-20T01:51:30.031Z,1011.22
2018-04-20T01:52:30.055Z,1011.22
2018-04-20T01:53:30.090Z,1011.20
2018-04-20T01:54:30.111Z,1011.19
2018-04-20T01:55:30.138Z,1011.22
2018-04-20T01:56:30.163Z,1011.22
2018-04-20T01:57:30.203Z,1011.19
2018-04-20T01:58:30.214Z,1011.20
2018-04-20T01:59:30.240Z,1011.21
2018-04-20T02:00:30.257Z,1011.21
2018-04-20T02:01:30.281Z,1011.20
2018-04-20T02:02:30.311Z,1011.20
2018-04-20T02:03:30.334Z,1011.12
2018-04-20T02:04:30.370Z,1011.14
2018-04-20T02:05:30.386Z,1011.12
2018-04-20T02:06:30.406Z,1011.13
2018-04-20T02:07:30.432Z,1011.16
2018-04-20T02:08:30.459Z,1011.17
2018-04-20T02:09:30.486Z,1011.16
2018-04-20T02:10:30.511Z,1011.19
2018-04-20T02:11:30.536Z,1011.16
2018-04-20T02:12:30.562Z,1011.16
2018-04-20T02:13:30.598Z,1011.19
2018-04-20T02:14:30.611Z,1011.16
2018-04-20T02:15:30.632Z,1011.20
2018-04-20T02:16:30.668Z,1011.17
2018-04-20T02:17:30.690Z,1011.16
2018-04-20T02:18:30.711Z,1011.18
2018-04-20T02:19:30.740Z,1011.19
2018-04-20T02:20:30.762Z,1011.19
2018-04-20T02:21:30.788Z,1011.17
2018-04-20T02:22:30.811Z,1011.20
2018-04-20T02:23:30.834Z,1011.21
2018-04-20T02:24:30.859Z,1011.21
2018-04-20T02:25:30.891Z,1011.20
2018-04-20T02:26:30.909Z,1011.22
2018-04-20T02:27:30.939Z,1011.24
2018-04-20T02:28:30.958Z,1011.21
2018-04-20T02:29:30.981Z,1011.19
2018-04-20T02:30:31.017Z,1011.20
2018-04-20T02:31:31.042Z,1011.17
2018-04-20T02:32:31.060Z,1011.16
2018-04-20T02:33:31.092Z,1011.17
2018-04-20T02:34:31.103Z,1011.16
2018-04-20T02:35:31.131Z,1011.18
2018-04-20T02:36:31.158Z,1011.13
2018-04-20T02:37:31.183Z,1011.14
2018-04-20T02:38:31.205Z,1011.12
2018-04-20T02:39:31.236Z,1011.13
2018-04-20T02:40:31.256Z,1011.09
2018-04-20T02:41:31.282Z,1011.11
2018-04-20T02:42:31.305Z,1011.08
2018-04-20T02:43:31.332Z,1011.06
2018-04-20T02:44:31.351Z,1011.07
2018-04-20T02:45:31.379Z,1011.06
2018-04-20T02:46:31.401Z,1011.04
2018-04-20T02:47:31.436Z,1011.02
2018-04-20T02:48:31.460Z,1011.00
2018-04-20T02:49:31.476Z,1010.98
2018-04-20T02:50:31.515Z,1011.01
2018-04-20T02:51:31.531Z,1010.99
2018-04-20T02:52:31.552Z,1010.97
2018-04-20T02:53:31.578Z,1010.96
2018-04-20T02:54:31.597Z,1010.96
2018-04-20T02:55:31.625Z,1010.93
2018-04-20T02:56:31.695Z,1010.94
2018-04-20T02:57:31.715Z,1010.92
2018-04-20T02:58:31.723Z,1010.89
2018-04-20T02:59:31.736Z,1010.87
2018-04-20T03:00:31.745Z,1010.90
2018-04-20T03:01:31.775Z,1010.90
2018-04-20T03:02:31.792Z,1010.85
2018-04-20T03:03:31.823Z,1010.83
2018-04-20T03:04:31.845Z,1010.84
2018-04-20T03:05:31.868Z,1010.83
2018-04-20T03:06:31.907Z,1010.82
2018-04-20T03:07:31.918Z,1010.81
2018-04-20T03:08:31.944Z,1010.81
2018-04-20T03:09:31.968Z,1010.82
2018-04-20T03:10:31.994Z,1010.82
2018-04-20T03:11:32.012Z,1010.84
2018-04-20T03:12:32.039Z,1010.85
2018-04-20T03:13:32.060Z,1010.85
2018-04-20T03:14:32.088Z,1010.86
2018-04-20T03:15:32.111Z,1010.81
2018-04-20T03:16:32.138Z,1010.82
2018-04-20T03:17:32.157Z,1010.80
2018-04-20T03:18:32.178Z,1010.81
2018-04-20T03:19:32.206Z,1010.81
2018-04-20T03:20:32.274Z,1010.81
2018-04-20T03:21:32.263Z,1010.77
2018-04-20T03:22:32.283Z,1010.76
2018-04-20T03:23:32.306Z,1010.79
2018-04-20T03:24:32.324Z,1010.77
2018-04-20T03:25:32.375Z,1010.77
2018-04-20T03:26:32.419Z,1010.76
2018-04-20T03:27:32.410Z,1010.75
2018-04-20T03:28:32.429Z,1010.75
2018-04-20T03:29:32.458Z,1010.72
2018-04-20T03:30:32.473Z,1010.71
2018-04-20T03:31:32.508Z,1010.76
2018-04-20T03:32:32.524Z,1010.78
2018-04-20T03:33:32.548Z,1010.77
2018-04-20T03:34:32.573Z,1010.78
2018-04-20T03:35:32.594Z,1010.78
2018-04-20T03:36:32.614Z,1010.76
2018-04-20T03:37:32.654Z,1010.80
2018-04-20T03:38:32.666Z,1010.80
2018-04-20T03:39:32.692Z,1010.77
2018-04-20T03:40:32.707Z,1010.76
2018-04-20T03:41:32.740Z,1010.79
2018-04-20T03:42:32.759Z,1010.81
2018-04-20T03:43:32.790Z,1010.81
2018-04-20T03:44:32.808Z,1010.81
2018-04-20T03:45:32.836Z,1010.78
2018-04-20T03:46:32.862Z,1010.76
2018-04-20T03:47:32.908Z,1010.75
2018-04-20T03:48:32.901Z,1010.78
2018-04-20T03:49:32.937Z,1010.75
2018-04-20T03:50:32.964Z,1010.77
2018-04-20T03:51:32.978Z,1010.80
2018-04-20T03:52:33.004Z,1010.76
2018-04-20T03:53:33.035Z,1010.76
2018-04-20T03:54:33.049Z,1010.79
2018-04-20T03:55:33.076Z,1010.78
2018-04-20T03:56:33.107Z,1010.81
2018-04-20T03:57:33.122Z,1010.75
2018-04-20T03:58:33.188Z,1010.78
2018-04-20T03:59:33.170Z,1010.80
2018-04-20T04:00:33.193Z,1010.83
2018-04-20T04:01:33.218Z,1010.79
2018-04-20T04:02:33.248Z,1010.74
2018-04-20T04:03:33.266Z,1010.77
2018-04-20T04:04:33.292Z,1010.77
2018-04-20T04:05:33.322Z,1010.74
2018-04-20T04:06:33.337Z,1010.77
2018-04-20T04:07:33.375Z,1010.76
2018-04-20T04:08:33.383Z,1010.75
2018-04-20T04:09:33.413Z,1010.76
2018-04-20T04:10:33.436Z,1010.75
2018-04-20T04:11:33.463Z,1010.71
2018-04-20T04:12:33.483Z,1010.78
2018-04-20T04:13:33.505Z,1010.73
2018-04-20T04:14:33.534Z,1010.70
2018-04-20T04:15:33.559Z,1010.75
2018-04-20T04:16:33.579Z,1010.70
2018-04-20T04:17:33.605Z,1010.69
2018-04-20T04:18:33.625Z,1010.71
2018-04-20T04:19:33.652Z,1010.71
2018-04-20T04:20:33.676Z,1010.74
2018-04-20T04:21:33.699Z,1010.75
2018-04-20T04:22:33.742Z,1010.73
2018-04-20T04:23:33.766Z,1010.71
2018-04-20T04:24:33.784Z,1010.70
2018-04-20T04:25:33.799Z,1010.69
2018-04-20T04:26:33.823Z,1010.72
2018-04-20T04:27:33.847Z,1010.68
2018-04-20T04:28:33.868Z,1010.71
2018-04-20T04:29:33.889Z,1010.70
2018-04-20T04:30:33.914Z,1010.72
2018-04-20T04:31:33.936Z,1010.73
2018-04-20T04:32:33.975Z,1010.71
2018-04-20T04:33:33.987Z,1010.73
2018-04-20T04:34:34.010Z,1010.74
2018-04-20T04:35:34.038Z,1010.72
2018-04-20T04:36:34.055Z,1010.73
2018-04-20T04:37:34.077Z,1010.78
2018-04-20T04:38:34.112Z,1010.77
2018-04-20T04:39:34.168Z,1010.78
2018-04-20T04:40:34.152Z,1010.77
2018-04-20T04:41:34.182Z,1010.78
2018-04-20T04:42:34.200Z,1010.78
2018-04-20T04:43:34.221Z,1010.76
2018-04-20T04:44:34.241Z,1010.78
2018-04-20T04:45:34.274Z,1010.81
2018-04-20T04:46:34.292Z,1010.75
2018-04-20T04:47:34.326Z,1010.78
2018-04-20T04:48:34.338Z,1010.80
2018-04-20T04:49:34.365Z,1010.80
2018-04-20T04:50:34.388Z,1010.78
2018-04-20T04:51:34.411Z,1010.82
2018-04-20T04:52:34.440Z,1010.85
2018-04-20T04:53:34.468Z,1010.86
2018-04-20T04:54:34.481Z,1010.93
2018-04-20T04:55:34.503Z,1010.90
2018-04-20T04:56:34.520Z,1010.93
2018-04-20T04:57:34.555Z,1010.94
2018-04-20T04:58:34.580Z,1010.98
2018-04-20T04:59:34.595Z,1011.00
2018-04-20T05:00:34.621Z,1011.02
2018-04-20T05:01:34.641Z,1011.02
2018-04-20T05:02:34.670Z,1011.03
2018-04-20T05:03:34.718Z,1011.05
2018-04-20T05:04:34.718Z,1010.98
2018-04-20T05:05:34.751Z,1011.02
2018-04-20T05:06:34.764Z,1011.00
2018-04-20T05:07:34.783Z,1011.00
2018-04-20T05:08:34.813Z,1011.04
2018-04-20T05:09:34.835Z,1011.04
2018-04-20T05:10:34.877Z,1011.07
2018-04-20T05:11:34.880Z,1011.05
2018-04-20T05:12:34.918Z,1011.07
2018-04-20T05:13:34.926Z,1011.09
2018-04-20T05:14:34.947Z,1011.11
2018-04-20T05:15:34.973Z,1011.11
2018-04-20T05:16:34.995Z,1011.10
2018-04-20T05:17:35.018Z,1011.12
2018-04-20T05:18:35.044Z,1011.15
2018-04-20T05:19:35.068Z,1011.13
2018-04-20T05:20:35.085Z,1011.15
2018-04-20T05:21:35.111Z,1011.13
2018-04-20T05:22:35.148Z,1011.13
2018-04-20T05:23:35.168Z,1011.12
2018-04-20T05:24:35.191Z,1011.12
2018-04-20T05:25:35.204Z,1011.17
2018-04-20T05:26:35.235Z,1011.17
2018-04-20T05:27:35.258Z,1011.16
2018-04-20T05:28:35.272Z,1011.17
2018-04-20T05:29:35.299Z,1011.19
2018-04-20T05:30:35.318Z,1011.19
2018-04-20T05:31:35.340Z,1011.20
2018-04-20T05:32:35.373Z,1011.23
2018-04-20T05:33:35.386Z,1011.19
2018-04-20T05:34:35.411Z,1011.18
2018-04-20T05:35:35.432Z,1011.19
2018-04-20T05:36:35.460Z,1011.22
2018-04-20T05:37:35.501Z,1011.16
2018-04-20T05:38:35.507Z,1011.15
2018-04-20T05:39:35.526Z,1011.21
2018-04-20T05:40:35.556Z,1011.15
2018-04-20T05:41:35.574Z,1011.15
2018-04-20T05:42:35.597Z,1011.16
2018-04-20T05:43:35.622Z,1011.18
2018-04-20T05:44:35.643Z,1011.17
2018-04-20T05:45:35.673Z,1011.16
2018-04-20T05:46:35.693Z,1011.19
2018-04-20T05:47:35.718Z,1011.17
2018-04-20T05:48:35.760Z,1011.18
2018-04-20T05:49:35.764Z,1011.17
2018-04-20T05:50:35.785Z,1011.16
2018-04-20T05:51:35.802Z,1011.19
2018-04-20T05:52:35.834Z,1011.13
2018-04-20T05:53:35.854Z,1011.18
2018-04-20T05:54:35.879Z,1011.17
2018-04-20T05:55:35.908Z,1011.16
2018-04-20T05:56:35.920Z,1011.15
2018-04-20T05:57:35.948Z,1011.17
2018-04-20T05:58:35.977Z,1011.17
2018-04-20T05:59:35.998Z,1011.18
2018-04-20T06:00:36.014Z,1011.16
2018-04-20T06:01:36.042Z,1011.12
2018-04-20T06:02:36.057Z,1011.14
2018-04-20T06:03:36.094Z,1011.11
2018-04-20T06:04:36.106Z,1011.15
2018-04-20T06:05:36.144Z,1011.12
2018-04-20T06:06:36.179Z,1011.14
2018-04-20T06:07:36.195Z,1011.10
2018-04-20T06:08:36.211Z,1011.13
2018-04-20T06:09:36.250Z,1011.10
2018-04-20T06:10:36.259Z,1011.05
2018-04-20T06:11:36.278Z,1011.10
2018-04-20T06:12:36.303Z,1011.08
2018-04-20T06:13:36.325Z,1011.08
2018-04-20T06:14:36.373Z,1011.09
2018-04-20T06:15:36.369Z,1011.13
2018-04-20T06:16:36.391Z,1011.08
2018-04-20T06:17:36.423Z,1011.07
2018-04-20T06:18:36.445Z,1011.12
2018-04-20T06:19:36.464Z,1011.14
2018-04-20T06:20:36.490Z,1011.12
2018-04-20T06:21:36.508Z,1011.09
2018-04-20T06:22:36.549Z,1011.13
2018-04-20T06:23:36.567Z,1011.13
2018-04-20T06:24:36.581Z,1011.14
2018-04-20T06:25:36.609Z,1011.13
2018-04-20T06:26:36.683Z,1011.13
2018-04-20T06:27:36.657Z,1011.11
2018-04-20T06:28:36.684Z,1011.14
2018-04-20T06:29:36.701Z,1011.16
2018-04-20T06:30:36.724Z,1011.14
2018-04-20T06:31:36.747Z,1011.13
2018-04-20T06:32:36.771Z,1011.17
2018-04-20T06:33:36.796Z,1011.18
2018-04-20T06:34:36.817Z,1011.19
2018-04-20T06:35:36.842Z,1011.21
2018-04-20T06:36:36.868Z,1011.19
2018-04-20T06:37:36.892Z,1011.24
2018-04-20T06:38:36.911Z,1011.27
2018-04-20T06:39:36.938Z,1011.23
2018-04-20T06:40:36.960Z,1011.26
2018-04-20T06:41:37.027Z,1011.25
2018-04-20T06:42:37.016Z,1011.24
2018-04-20T06:43:37.045Z,1011.23
2018-04-20T06:44:37.061Z,1011.24
2018-04-20T06:45:37.084Z,1011.24
2018-04-20T06:46:37.113Z,1011.27
2018-04-20T06:47:37.129Z,1011.23
2018-04-20T06:48:37.159Z,1011.26
2018-04-20T06:49:37.178Z,1011.27
2018-04-20T06:50:37.204Z,1011.32
2018-04-20T06:51:37.234Z,1011.31
2018-04-20T06:52:37.251Z,1011.37
2018-04-20T06:53:37.285Z,1011.32
2018-04-20T06:54:37.310Z,1011.35
2018-04-20T06:55:37.339Z,1011.31
2018-04-20T06:56:37.350Z,1011.34
2018-04-20T06:57:37.372Z,1011.34
2018-04-20T06:58:37.399Z,1011.34
2018-04-20T06:59:37.428Z,1011.36
2018-04-20T07:00:37.483Z,1011.32
2018-04-20T07:01:37.471Z,1011.33
2018-04-20T07:02:37.490Z,1011.35
2018-04-20T07:03:37.519Z,1011.33
2018-04-20T07:04:37.555Z,1011.30
2018-04-20T07:05:37.565Z,1011.33
2018-04-20T07:06:37.596Z,1011.27
2018-04-20T07:07:37.618Z,1011.31
2018-04-20T07:08:37.638Z,1011.30
2018-04-20T07:09:37.660Z,1011.26
2018-04-20T07:10:37.694Z,1011.28
2018-04-20T07:11:37.715Z,1011.25
2018-04-20T07:12:37.741Z,1011.28
2018-04-20T07:13:37.774Z,1011.25
2018-04-20T07:14:37.784Z,1011.27
2018-04-20T07:15:37.812Z,1011.27
2018-04-20T07:16:37.831Z,1011.26
2018-04-20T07:17:37.862Z,1011.32
2018-04-20T07:18:37.895Z,1011.32
2018-04-20T07:19:37.917Z,1011.27
2018-04-20T07:20:37.931Z,1011.30
2018-04-20T07:21:37.964Z,1011.28
2018-04-20T07:22:37.982Z,1011.31
2018-04-20T07:23:38.024Z,1011.28
2018-04-20T07:24:38.037Z,1011.25
2018-04-20T07:25:38.061Z,1011.26
2018-04-20T07:26:38.085Z,1011.28
2018-04-20T07:27:38.131Z,1011.30
2018-04-20T07:28:38.145Z,1011.29
2018-04-20T07:29:38.175Z,1011.29
2018-04-20T07:30:38.182Z,1011.29
2018-04-20T07:31:38.205Z,1011.31
2018-04-20T07:32:38.228Z,1011.31
2018-04-20T07:33:38.256Z,1011.29
2018-04-20T07:34:38.278Z,1011.28
2018-04-20T07:35:38.351Z,1011.30
2018-04-20T07:36:38.334Z,1011.31
2018-04-20T07:37:38.359Z,1011.24
2018-04-20T07:38:38.380Z,1011.25
2018-04-20T07:39:38.408Z,1011.22
2018-04-20T07:40:38.434Z,1011.25
2018-04-20T07:41:38.475Z,1011.22
2018-04-20T07:42:38.480Z,1011.26
2018-04-20T07:43:38.508Z,1011.23
2018-04-20T07:44:38.533Z,1011.27
2018-04-20T07:45:38.566Z,1011.27
2018-04-20T07:46:38.579Z,1011.25
2018-04-20T07:47:38.604Z,1011.24
2018-04-20T07:48:38.629Z,1011.28
2018-04-20T07:49:38.654Z,1011.28
2018-04-20T07:50:38.683Z,1011.30
2018-04-20T07:51:38.705Z,1011.28
2018-04-20T07:52:38.729Z,1011.24
2018-04-20T07:53:38.761Z,1011.28
2018-04-20T07:54:38.781Z,1011.24
2018-04-20T07:55:38.807Z,1011.24
2018-04-20T07:56:38.834Z,1011.23
2018-04-20T07:57:38.860Z,1011.25
2018-04-20T07:58:38.886Z,1011.28
2018-04-20T07:59:38.910Z,1011.29
2018-04-20T08:00:38.935Z,1011.27
2018-04-20T08:01:38.957Z,1011.31
2018-04-20T08:02:38.980Z,1011.33
2018-04-20T08:03:39.011Z,1011.29
2018-04-20T08:04:39.040Z,1011.30
2018-04-20T08:05:39.059Z,1011.29
2018-04-20T08:06:39.091Z,1011.30
2018-04-20T08:07:39.111Z,1011.32
2018-04-20T08:08:39.147Z,1011.32
2018-04-20T08:09:39.158Z,1011.32
2018-04-20T08:10:39.183Z,1011.32
2018-04-20T08:11:39.213Z,1011.29
2018-04-20T08:12:39.238Z,1011.37
2018-04-20T08:13:39.263Z,1011.35
2018-04-20T08:14:39.292Z,1011.35
2018-04-20T08:15:39.309Z,1011.35
2018-04-20T08:16:39.335Z,1011.37
2018-04-20T08:17:39.373Z,1011.32
2018-04-20T08:18:39.392Z,1011.34
2018-04-20T08:19:39.411Z,1011.35
2018-04-20T08:20:39.437Z,1011.34
2018-04-20T08:21:39.464Z,1011.34
2018-04-20T08:22:39.487Z,1011.39
2018-04-20T08:23:39.519Z,1011.37
2018-04-20T08:24:39.550Z,1011.37
2018-04-20T08:25:39.567Z,1011.36
2018-04-20T08:26:39.593Z,1011.40
2018-04-20T08:27:39.619Z,1011.43
2018-04-20T08:28:39.647Z,1011.41
2018-04-20T08:29:39.675Z,1011.45
2018-04-20T08:30:39.688Z,1011.48
2018-04-20T08:31:39.721Z,1011.46
2018-04-20T08:32:39.742Z,1011.46
2018-04-20T08:33:39.769Z,1011.45
2018-04-20T08:34:39.799Z,1011.44
2018-04-20T08:35:39.820Z,1011.44
2018-04-20T08:36:39.850Z,1011.42
2018-04-20T08:37:39.883Z,1011.42
2018-04-20T08:38:39.893Z,1011.46
2018-04-20T08:39:39.922Z,1011.43
2018-04-20T08:40:39.945Z,1011.46
2018-04-20T08:41:39.975Z,1011.47
2018-04-20T08:42:40.014Z,1011.45
2018-04-20T08:43:40.024Z,1011.45
2018-04-20T08:44:40.056Z,1011.47
2018-04-20T08:45:40.085Z,1011.48
2018-04-20T08:46:40.099Z,1011.48
2018-04-20T08:47:40.131Z,1011.49
2018-04-20T08:48:40.153Z,1011.47
2018-04-20T08:49:40.180Z,1011.48
2018-04-20T08:50:40.214Z,1011.45
2018-04-20T08:51:40.229Z,1011.49
2018-04-20T08:52:40.256Z,1011.49
2018-04-20T08:53:40.291Z,1011.43
2018-04-20T08:54:40.315Z,1011.46
2018-04-20T08:55:40.344Z,1011.46
2018-04-20T08:56:40.380Z,1011.46
2018-04-20T08:57:40.384Z,1011.42
2018-04-20T08:58:40.410Z,1011.41
2018-04-20T08:59:40.442Z,1011.40
2018-04-20T09:00:40.469Z,1011.43
2018-04-20T09:01:40.497Z,1011.42
2018-04-20T09:02:40.520Z,1011.41
2018-04-20T09:03:40.544Z,1011.41
2018-04-20T09:04:40.579Z,1011.38
2018-04-20T09:05:40.591Z,1011.42
2018-04-20T09:06:40.632Z,1011.38
2018-04-20T09:07:40.656Z,1011.34
2018-04-20T09:08:40.674Z,1011.37
2018-04-20T09:09:40.700Z,1011.40
2018-04-20T09:10:40.741Z,1011.37
2018-04-20T09:11:40.757Z,1011.36
2018-04-20T09:12:40.783Z,1011.39
2018-04-20T09:13:40.807Z,1011.38
2018-04-20T09:14:40.830Z,1011.43
2018-04-20T09:15:40.861Z,1011.43
2018-04-20T09:16:40.884Z,1011.38
2018-04-20T09:17:40.907Z,1011.39
2018-04-20T09:18:40.943Z,1011.37
2018-04-20T09:19:40.962Z,1011.34
2018-04-20T09:20:40.999Z,1011.35
2018-04-20T09:21:41.019Z,1011.34
2018-04-20T09:22:41.045Z,1011.32
2018-04-20T09:23:41.077Z,1011.36
2018-04-20T09:24:41.095Z,1011.31
2018-04-20T09:25:41.127Z,1011.32
2018-04-20T09:26:41.148Z,1011.29
2018-04-20T09:27:41.189Z,1011.25
2018-04-20T09:28:41.205Z,1011.28
2018-04-20T09:29:41.226Z,1011.25
2018-04-20T09:30:41.251Z,1011.24
2018-04-20T09:31:41.277Z,1011.26
2018-04-20T09:32:41.357Z,1011.22
2018-04-20T09:33:41.346Z,1011.24
2018-04-20T09:34:41.361Z,1011.24
2018-04-20T09:35:41.392Z,1011.26
2018-04-20T09:36:41.436Z,1011.20
2018-04-20T09:37:41.444Z,1011.19
2018-04-20T09:38:41.472Z,1011.20
2018-04-20T09:39:41.502Z,1011.20
2018-04-20T09:40:41.520Z,1011.16
2018-04-20T09:41:41.548Z,1011.15
2018-04-20T09:42:41.575Z,1011.14
2018-04-20T09:43:41.607Z,1011.16
2018-04-20T09:44:41.630Z,1011.12
2018-04-20T09:45:41.655Z,1011.13
2018-04-20T09:46:41.681Z,1011.11
2018-04-20T09:47:41.709Z,1011.08
2018-04-20T09:48:41.732Z,1011.09
2018-04-20T09:49:41.764Z,1011.19
2018-04-20T09:50:41.827Z,1011.13
2018-04-20T09:51:41.812Z,1011.11
2018-04-20T09:52:41.848Z,1011.17
2018-04-20T09:53:41.870Z,1011.16
2018-04-20T09:54:41.945Z,1011.17
2018-04-20T09:55:41.923Z,1011.14
2018-04-20T09:56:41.945Z,1011.13
2018-04-20T09:57:41.982Z,1011.12
2018-04-20T09:58:42.044Z,1011.14
2018-04-20T09:59:42.037Z,1011.19
2018-04-20T10:00:42.069Z,1011.16
2018-04-20T10:01:42.116Z,1011.16
2018-04-20T10:02:42.109Z,1011.14
2018-04-20T10:03:42.136Z,1011.14
2018-04-20T10:04:42.161Z,1011.14
2018-04-20T10:05:42.227Z,1011.17
2018-04-20T10:06:42.216Z,1011.13
2018-04-20T10:07:42.259Z,1011.12
2018-04-20T10:08:42.280Z,1011.15
2018-04-20T10:09:42.301Z,1011.11
2018-04-20T10:10:42.338Z,1011.11
2018-04-20T10:11:42.361Z,1011.13
2018-04-20T10:12:42.387Z,1011.11
2018-04-20T10:13:42.415Z,1011.08
2018-04-20T10:14:42.447Z,1011.12
2018-04-20T10:15:42.470Z,1011.10
2018-04-20T10:16:42.492Z,1011.10
2018-04-20T10:17:42.523Z,1011.10
2018-04-20T10:18:42.549Z,1011.15
2018-04-20T10:19:42.574Z,1011.13
2018-04-20T10:20:42.602Z,1011.16
2018-04-20T10:21:42.635Z,1011.14
2018-04-20T10:22:42.659Z,1011.14
2018-04-20T10:23:42.684Z,1011.16
2018-04-20T10:24:42.712Z,1011.13
2018-04-20T10:25:42.737Z,1011.13
2018-04-20T10:26:42.763Z,1011.10
2018-04-20T10:27:42.793Z,1011.05
2018-04-20T10:28:42.825Z,1011.06
2018-04-20T10:29:42.854Z,1011.07
2018-04-20T10:30:42.876Z,1011.07
2018-04-20T10:31:42.904Z,1011.07
2018-04-20T10:32:42.933Z,1011.03
2018-04-20T10:33:42.959Z,1011.06
2018-04-20T10:34:42.985Z,1011.04
2018-04-20T10:35:43.040Z,1011.01
2018-04-20T10:36:43.044Z,1011.01
2018-04-20T10:37:43.071Z,1010.97
2018-04-20T10:38:43.096Z,1010.99
2018-04-20T10:39:43.126Z,1010.98
2018-04-20T10:40:43.156Z,1010.97
2018-04-20T10:41:43.175Z,1010.95
2018-04-20T10:42:43.211Z,1010.94
2018-04-20T10:43:43.258Z,1010.95
2018-04-20T10:44:43.256Z,1010.97
2018-04-20T10:45:43.288Z,1010.95
2018-04-20T10:46:43.322Z,1010.94
2018-04-20T10:47:43.348Z,1010.93
2018-04-20T10:48:43.373Z,1010.90
2018-04-20T10:49:43.401Z,1010.91
2018-04-20T10:50:43.423Z,1010.90
2018-04-20T10:51:43.458Z,1010.90
2018-04-20T10:52:43.486Z,1010.89
2018-04-20T10:53:43.512Z,1010.89
2018-04-20T10:54:43.540Z,1010.87
2018-04-20T10:55:43.565Z,1010.89
2018-04-20T10:56:43.600Z,1010.88
2018-04-20T10:57:43.627Z,1010.82
2018-04-20T10:58:43.651Z,1010.78
2018-04-20T10:59:43.706Z,1010.79
2018-04-20T11:00:43.710Z,1010.78
2018-04-20T11:01:43.736Z,1010.78
2018-04-20T11:02:43.761Z,1010.80
2018-04-20T11:03:43.794Z,1010.77
2018-04-20T11:04:43.825Z,1010.77
2018-04-20T11:05:43.845Z,1010.77
2018-04-20T11:06:43.870Z,1010.74
2018-04-20T11:07:43.901Z,1010.71
2018-04-20T11:08:43.937Z,1010.73
2018-04-20T11:09:43.955Z,1010.71
2018-04-20T11:10:43.988Z,1010.73
2018-04-20T11:11:44.014Z,1010.69
2018-04-20T11:12:44.045Z,1010.69
2018-04-20T11:13:44.073Z,1010.69
2018-04-20T11:14:44.098Z,1010.67
2018-04-20T11:15:44.133Z,1010.65
2018-04-20T11:16:44.163Z,1010.68
2018-04-20T11:17:44.193Z,1010.65
2018-04-20T11:18:44.226Z,1010.64
2018-04-20T11:19:44.239Z,1010.60
2018-04-20T11:20:44.270Z,1010.62
2018-04-20T11:21:44.302Z,1010.61
2018-04-20T11:22:44.327Z,1010.59
2018-04-20T11:23:44.389Z,1010.59
2018-04-20T11:24:44.379Z,1010.59
2018-04-20T11:25:44.408Z,1010.62
2018-04-20T11:26:44.443Z,1010.59
2018-04-20T11:27:44.468Z,1010.58
2018-04-20T11:28:44.579Z,1010.60
2018-04-20T11:29:44.525Z,1010.61
2018-04-20T11:30:44.552Z,1010.54
2018-04-20T11:31:44.581Z,1010.58
2018-04-20T11:32:44.615Z,1010.58
2018-04-20T11:33:44.635Z,1010.55
2018-04-20T11:34:44.675Z,1010.57
2018-04-20T11:35:44.694Z,1010.56
2018-04-20T11:36:44.728Z,1010.59
2018-04-20T11:37:44.768Z,1010.57
2018-04-20T11:38:44.778Z,1010.53
2018-04-20T11:39:44.813Z,1010.58
2018-04-20T11:40:44.838Z,1010.54
2018-04-20T11:41:44.911Z,1010.52
2018-04-20T11:42:44.903Z,1010.52
2018-04-20T11:43:44.923Z,1010.48
2018-04-20T11:44:44.959Z,1010.48
2018-04-20T11:45:44.985Z,1010.43
2018-04-20T11:46:45.009Z,1010.43
2018-04-20T11:47:45.037Z,1010.38
2018-04-20T11:48:45.082Z,1010.37
2018-04-20T11:49:45.099Z,1010.41
2018-04-20T11:50:45.129Z,1010.39
2018-04-20T11:51:45.163Z,1010.39
2018-04-20T11:52:45.228Z,1010.37
2018-04-20T11:53:45.252Z,1010.38
2018-04-20T11:54:45.263Z,1010.40
2018-04-20T11:55:45.278Z,1010.32
2018-04-20T11:56:45.297Z,1010.34
2018-04-20T11:57:45.340Z,1010.36
2018-04-20T11:58:45.360Z,1010.33
2018-04-20T11:59:45.384Z,1010.31
2018-04-20T12:00:45.472Z,1010.31
2018-04-20T12:01:45.464Z,1010.32
2018-04-20T12:02:45.485Z,1010.33
2018-04-20T12:03:45.500Z,1010.31
2018-04-20T12:04:45.531Z,1010.30
2018-04-20T12:05:45.560Z,1010.30